sensor_id;sensor_type;location;lat;lon;timestamp;P1;durP1;ratioP1;P2;durP2;ratioP2
12814;SDS011;6472;52.328;13.070;2023-08-06T00:00:26;6.70;;;5.97;;
12814;SDS011;6472;52.328;13.070;2023-08-06T00:02:56;8.48;;;6.18;;
12814;SDS011;6472;52.328;13.070;2023-08-06T00:05:24;8.73;;;6.10;;
12814;SDS011;6472;52.328;13.070;2023-08-06T00:07:52;7.45;;;5.72;;
12814;SDS011;6472;52.328;13.070;2023-08-06T00:10:21;8.32;;;6.20;;
12814;SDS011;6472;52.328;13.070;2023-08-06T00:12:49;7.32;;;5.40;;
12814;SDS011;6472;52.328;13.070;2023-08-06T00:15:17;10.05;;;5.65;;
12814;SDS011;6472;52.328;13.070;2023-08-06T00:17:45;12.30;;;5.40;;
12814;SDS011;6472;52.328;13.070;2023-08-06T00:20:15;7.18;;;5.57;;
12814;SDS011;6472;52.328;13.070;2023-08-06T00:22:43;6.55;;;5.45;;
12814;SDS011;6472;52.328;13.070;2023-08-06T00:25:11;6.10;;;5.45;;
12814;SDS011;6472;52.328;13.070;2023-08-06T00:27:39;5.95;;;5.45;;
12814;SDS011;6472;52.328;13.070;2023-08-06T00:30:07;7.00;;;6.30;;
12814;SDS011;6472;52.328;13.070;2023-08-06T00:32:35;7.07;;;6.38;;
12814;SDS011;6472;52.328;13.070;2023-08-06T00:35:04;7.85;;;5.60;;
12814;SDS011;6472;52.328;13.070;2023-08-06T00:37:34;6.90;;;6.22;;
12814;SDS011;6472;52.328;13.070;2023-08-06T00:40:02;7.82;;;5.47;;
12814;SDS011;6472;52.328;13.070;2023-08-06T00:42:31;6.22;;;5.63;;
12814;SDS011;6472;52.328;13.070;2023-08-06T00:44:59;9.55;;;6.15;;
12814;SDS011;6472;52.328;13.070;2023-08-06T00:47:27;8.32;;;6.25;;
12814;SDS011;6472;52.328;13.070;2023-08-06T00:49:55;8.48;;;6.25;;
12814;SDS011;6472;52.328;13.070;2023-08-06T00:52:23;7.47;;;5.50;;
12814;SDS011;6472;52.328;13.070;2023-08-06T00:54:53;7.07;;;5.63;;
12814;SDS011;6472;52.328;13.070;2023-08-06T00:57:21;5.95;;;5.38;;
12814;SDS011;6472;52.328;13.070;2023-08-06T00:59:52;6.65;;;5.95;;
12814;SDS011;6472;52.328;13.070;2023-08-06T01:02:21;8.05;;;5.30;;
12814;SDS011;6472;52.328;13.070;2023-08-06T01:04:49;6.23;;;5.63;;
12814;SDS011;6472;52.328;13.070;2023-08-06T01:07:20;5.73;;;5.23;;
12814;SDS011;6472;52.328;13.070;2023-08-06T01:10:00;9.98;;;5.57;;
12814;SDS011;6472;52.328;13.070;2023-08-06T01:12:47;6.15;;;5.55;;
12814;SDS011;6472;52.328;13.070;2023-08-06T01:15:22;8.73;;;5.75;;
12814;SDS011;6472;52.328;13.070;2023-08-06T01:17:56;6.60;;;6.00;;
12814;SDS011;6472;52.328;13.070;2023-08-06T01:20:28;5.80;;;5.13;;
12814;SDS011;6472;52.328;13.070;2023-08-06T01:22:57;6.78;;;6.18;;
12814;SDS011;6472;52.328;13.070;2023-08-06T01:25:26;7.53;;;5.68;;
12814;SDS011;6472;52.328;13.070;2023-08-06T01:28:03;7.60;;;6.88;;
12814;SDS011;6472;52.328;13.070;2023-08-06T01:30:39;7.18;;;6.47;;
12814;SDS011;6472;52.328;13.070;2023-08-06T01:33:10;7.30;;;6.60;;
12814;SDS011;6472;52.328;13.070;2023-08-06T01:35:47;7.53;;;6.07;;
12814;SDS011;6472;52.328;13.070;2023-08-06T01:38:16;7.70;;;6.60;;
12814;SDS011;6472;52.328;13.070;2023-08-06T01:40:45;7.33;;;6.63;;
12814;SDS011;6472;52.328;13.070;2023-08-06T01:43:13;10.70;;;6.47;;
12814;SDS011;6472;52.328;13.070;2023-08-06T01:45:40;7.95;;;6.60;;
12814;SDS011;6472;52.328;13.070;2023-08-06T01:48:08;7.15;;;6.32;;
12814;SDS011;6472;52.328;13.070;2023-08-06T01:50:37;7.97;;;7.18;;
12814;SDS011;6472;52.328;13.070;2023-08-06T01:53:06;7.35;;;6.63;;
12814;SDS011;6472;52.328;13.070;2023-08-06T01:55:34;7.28;;;6.60;;
12814;SDS011;6472;52.328;13.070;2023-08-06T01:58:02;9.60;;;7.00;;
12814;SDS011;6472;52.328;13.070;2023-08-06T02:00:30;9.57;;;6.57;;
12814;SDS011;6472;52.328;13.070;2023-08-06T02:02:58;7.95;;;6.60;;
12814;SDS011;6472;52.328;13.070;2023-08-06T02:05:26;9.00;;;7.03;;
12814;SDS011;6472;52.328;13.070;2023-08-06T02:07:55;8.75;;;6.35;;
12814;SDS011;6472;52.328;13.070;2023-08-06T02:10:24;7.35;;;6.13;;
12814;SDS011;6472;52.328;13.070;2023-08-06T02:12:52;7.53;;;6.70;;
12814;SDS011;6472;52.328;13.070;2023-08-06T02:15:20;7.35;;;6.65;;
12814;SDS011;6472;52.328;13.070;2023-08-06T02:17:48;7.35;;;6.55;;
12814;SDS011;6472;52.328;13.070;2023-08-06T02:20:16;6.53;;;5.93;;
12814;SDS011;6472;52.328;13.070;2023-08-06T02:22:44;9.30;;;6.88;;
12814;SDS011;6472;52.328;13.070;2023-08-06T02:25:13;8.32;;;7.53;;
12814;SDS011;6472;52.328;13.070;2023-08-06T02:27:42;8.23;;;7.32;;
12814;SDS011;6472;52.328;13.070;2023-08-06T02:30:10;8.63;;;7.72;;
12814;SDS011;6472;52.328;13.070;2023-08-06T02:32:38;7.82;;;7.05;;
12814;SDS011;6472;52.328;13.070;2023-08-06T02:35:06;8.50;;;7.63;;
12814;SDS011;6472;52.328;13.070;2023-08-06T02:37:35;10.30;;;8.40;;
12814;SDS011;6472;52.328;13.070;2023-08-06T02:40:03;10.18;;;8.93;;
12814;SDS011;6472;52.328;13.070;2023-08-06T02:42:32;8.63;;;7.35;;
12814;SDS011;6472;52.328;13.070;2023-08-06T02:45:01;8.75;;;7.85;;
12814;SDS011;6472;52.328;13.070;2023-08-06T02:47:30;9.18;;;8.27;;
12814;SDS011;6472;52.328;13.070;2023-08-06T02:49:58;8.98;;;8.07;;
12814;SDS011;6472;52.328;13.070;2023-08-06T02:52:26;11.32;;;9.02;;
12814;SDS011;6472;52.328;13.070;2023-08-06T02:54:54;14.48;;;9.18;;
12814;SDS011;6472;52.328;13.070;2023-08-06T02:57:22;9.55;;;8.30;;
12814;SDS011;6472;52.328;13.070;2023-08-06T02:59:50;12.02;;;8.20;;
12814;SDS011;6472;52.328;13.070;2023-08-06T03:02:20;9.30;;;8.40;;
12814;SDS011;6472;52.328;13.070;2023-08-06T03:04:48;10.95;;;9.00;;
12814;SDS011;6472;52.328;13.070;2023-08-06T03:07:16;9.98;;;8.45;;
12814;SDS011;6472;52.328;13.070;2023-08-06T03:09:44;8.75;;;7.93;;
12814;SDS011;6472;52.328;13.070;2023-08-06T03:12:12;9.00;;;8.10;;
12814;SDS011;6472;52.328;13.070;2023-08-06T03:14:40;9.23;;;8.15;;
12814;SDS011;6472;52.328;13.070;2023-08-06T03:17:08;10.15;;;8.57;;
12814;SDS011;6472;52.328;13.070;2023-08-06T03:19:38;9.95;;;9.05;;
12814;SDS011;6472;52.328;13.070;2023-08-06T03:22:05;8.65;;;7.72;;
12814;SDS011;6472;52.328;13.070;2023-08-06T03:24:33;9.40;;;8.48;;
12814;SDS011;6472;52.328;13.070;2023-08-06T03:27:02;9.00;;;8.10;;
12814;SDS011;6472;52.328;13.070;2023-08-06T03:29:30;10.17;;;9.17;;
12814;SDS011;6472;52.328;13.070;2023-08-06T03:31:58;10.35;;;8.10;;
12814;SDS011;6472;52.328;13.070;2023-08-06T03:34:27;8.93;;;7.07;;
12814;SDS011;6472;52.328;13.070;2023-08-06T03:36:56;11.63;;;8.77;;
12814;SDS011;6472;52.328;13.070;2023-08-06T03:39:25;9.50;;;7.97;;
12814;SDS011;6472;52.328;13.070;2023-08-06T03:41:53;8.98;;;7.78;;
12814;SDS011;6472;52.328;13.070;2023-08-06T03:44:21;8.77;;;7.88;;
12814;SDS011;6472;52.328;13.070;2023-08-06T03:46:49;10.55;;;8.75;;
12814;SDS011;6472;52.328;13.070;2023-08-06T03:49:17;11.20;;;8.73;;
12814;SDS011;6472;52.328;13.070;2023-08-06T03:51:45;9.77;;;8.10;;
12814;SDS011;6472;52.328;13.070;2023-08-06T03:54:14;9.73;;;8.38;;
12814;SDS011;6472;52.328;13.070;2023-08-06T03:56:42;9.55;;;8.48;;
12814;SDS011;6472;52.328;13.070;2023-08-06T03:59:10;9.68;;;8.52;;
12814;SDS011;6472;52.328;13.070;2023-08-06T04:01:38;10.15;;;8.23;;
12814;SDS011;6472;52.328;13.070;2023-08-06T04:04:06;9.70;;;7.78;;
12814;SDS011;6472;52.328;13.070;2023-08-06T04:06:34;8.77;;;7.90;;
12814;SDS011;6472;52.328;13.070;2023-08-06T04:09:02;10.85;;;8.88;;
12814;SDS011;6472;52.328;13.070;2023-08-06T04:11:32;9.05;;;8.15;;
12814;SDS011;6472;52.328;13.070;2023-08-06T04:14:00;10.52;;;9.43;;
12814;SDS011;6472;52.328;13.070;2023-08-06T04:16:28;9.85;;;8.50;;
12814;SDS011;6472;52.328;13.070;2023-08-06T04:18:56;9.93;;;7.55;;
12814;SDS011;6472;52.328;13.070;2023-08-06T04:21:25;10.00;;;8.60;;
12814;SDS011;6472;52.328;13.070;2023-08-06T04:23:53;14.82;;;9.18;;
12814;SDS011;6472;52.328;13.070;2023-08-06T04:26:21;9.30;;;8.43;;
12814;SDS011;6472;52.328;13.070;2023-08-06T04:28:50;9.25;;;7.97;;
12814;SDS011;6472;52.328;13.070;2023-08-06T04:31:18;9.57;;;8.13;;
12814;SDS011;6472;52.328;13.070;2023-08-06T04:33:46;9.80;;;7.70;;
12814;SDS011;6472;52.328;13.070;2023-08-06T04:36:15;9.00;;;8.10;;
12814;SDS011;6472;52.328;13.070;2023-08-06T04:38:43;10.52;;;7.38;;
12814;SDS011;6472;52.328;13.070;2023-08-06T04:41:11;8.65;;;7.82;;
12814;SDS011;6472;52.328;13.070;2023-08-06T04:43:39;9.73;;;8.20;;
12814;SDS011;6472;52.328;13.070;2023-08-06T04:46:08;10.73;;;9.10;;
12814;SDS011;6472;52.328;13.070;2023-08-06T04:48:36;11.70;;;8.65;;
12814;SDS011;6472;52.328;13.070;2023-08-06T04:51:04;8.52;;;7.68;;
12814;SDS011;6472;52.328;13.070;2023-08-06T04:53:32;9.43;;;8.32;;
12814;SDS011;6472;52.328;13.070;2023-08-06T04:56:00;10.57;;;8.45;;
12814;SDS011;6472;52.328;13.070;2023-08-06T04:58:29;11.27;;;8.98;;
12814;SDS011;6472;52.328;13.070;2023-08-06T05:00:57;10.25;;;8.80;;
12814;SDS011;6472;52.328;13.070;2023-08-06T05:03:26;9.15;;;7.95;;
12814;SDS011;6472;52.328;13.070;2023-08-06T05:05:55;8.30;;;7.50;;
12814;SDS011;6472;52.328;13.070;2023-08-06T05:08:23;8.13;;;6.65;;
12814;SDS011;6472;52.328;13.070;2023-08-06T05:10:51;8.68;;;7.78;;
12814;SDS011;6472;52.328;13.070;2023-08-06T05:13:19;8.93;;;7.40;;
12814;SDS011;6472;52.328;13.070;2023-08-06T05:15:47;7.82;;;6.65;;
12814;SDS011;6472;52.328;13.070;2023-08-06T05:18:15;11.00;;;6.82;;
12814;SDS011;6472;52.328;13.070;2023-08-06T05:20:45;8.80;;;7.05;;
12814;SDS011;6472;52.328;13.070;2023-08-06T05:23:13;8.38;;;6.65;;
12814;SDS011;6472;52.328;13.070;2023-08-06T05:25:41;7.40;;;6.70;;
12814;SDS011;6472;52.328;13.070;2023-08-06T05:28:09;8.48;;;6.53;;
12814;SDS011;6472;52.328;13.070;2023-08-06T05:30:38;6.85;;;6.18;;
12814;SDS011;6472;52.328;13.070;2023-08-06T05:33:06;8.13;;;7.05;;
12814;SDS011;6472;52.328;13.070;2023-08-06T05:35:35;9.02;;;7.00;;
12814;SDS011;6472;52.328;13.070;2023-08-06T05:38:04;8.35;;;6.28;;
12814;SDS011;6472;52.328;13.070;2023-08-06T05:40:33;7.80;;;6.68;;
12814;SDS011;6472;52.328;13.070;2023-08-06T05:43:01;7.30;;;6.47;;
12814;SDS011;6472;52.328;13.070;2023-08-06T05:45:29;8.23;;;6.38;;
12814;SDS011;6472;52.328;13.070;2023-08-06T05:47:57;7.97;;;6.75;;
12814;SDS011;6472;52.328;13.070;2023-08-06T05:50:26;6.82;;;6.05;;
12814;SDS011;6472;52.328;13.070;2023-08-06T05:52:53;8.63;;;6.88;;
12814;SDS011;6472;52.328;13.070;2023-08-06T05:55:25;8.55;;;6.70;;
12814;SDS011;6472;52.328;13.070;2023-08-06T05:57:53;7.82;;;6.95;;
12814;SDS011;6472;52.328;13.070;2023-08-06T06:00:21;7.45;;;6.40;;
12814;SDS011;6472;52.328;13.070;2023-08-06T06:02:49;6.22;;;5.63;;
12814;SDS011;6472;52.328;13.070;2023-08-06T06:05:17;6.40;;;5.60;;
12814;SDS011;6472;52.328;13.070;2023-08-06T06:07:45;7.93;;;5.78;;
12814;SDS011;6472;52.328;13.070;2023-08-06T06:10:13;8.32;;;6.10;;
12814;SDS011;6472;52.328;13.070;2023-08-06T06:12:43;6.00;;;5.25;;
12814;SDS011;6472;52.328;13.070;2023-08-06T06:15:11;6.35;;;5.60;;
12814;SDS011;6472;52.328;13.070;2023-08-06T06:17:39;7.20;;;5.82;;
12814;SDS011;6472;52.328;13.070;2023-08-06T06:20:07;6.60;;;5.72;;
12814;SDS011;6472;52.328;13.070;2023-08-06T06:22:35;5.95;;;5.22;;
12814;SDS011;6472;52.328;13.070;2023-08-06T06:25:04;6.18;;;5.40;;
12814;SDS011;6472;52.328;13.070;2023-08-06T06:27:33;5.53;;;5.03;;
12814;SDS011;6472;52.328;13.070;2023-08-06T06:30:02;6.20;;;5.10;;
12814;SDS011;6472;52.328;13.070;2023-08-06T06:32:31;5.20;;;4.70;;
12814;SDS011;6472;52.328;13.070;2023-08-06T06:35:00;6.72;;;6.05;;
12814;SDS011;6472;52.328;13.070;2023-08-06T06:37:28;6.78;;;5.53;;
12814;SDS011;6472;52.328;13.070;2023-08-06T06:39:56;7.30;;;5.47;;
12814;SDS011;6472;52.328;13.070;2023-08-06T06:42:24;6.72;;;5.70;;
12814;SDS011;6472;52.328;13.070;2023-08-06T06:44:52;7.63;;;6.13;;
12814;SDS011;6472;52.328;13.070;2023-08-06T06:47:21;6.97;;;5.10;;
12814;SDS011;6472;52.328;13.070;2023-08-06T06:49:49;7.88;;;5.57;;
12814;SDS011;6472;52.328;13.070;2023-08-06T06:52:17;5.78;;;5.28;;
12814;SDS011;6472;52.328;13.070;2023-08-06T06:54:45;6.95;;;5.72;;
12814;SDS011;6472;52.328;13.070;2023-08-06T06:57:14;5.93;;;5.30;;
12814;SDS011;6472;52.328;13.070;2023-08-06T06:59:41;7.97;;;6.43;;
12814;SDS011;6472;52.328;13.070;2023-08-06T07:02:09;7.47;;;5.40;;
12814;SDS011;6472;52.328;13.070;2023-08-06T07:04:39;8.10;;;5.68;;
12814;SDS011;6472;52.328;13.070;2023-08-06T07:07:07;6.18;;;5.57;;
12814;SDS011;6472;52.328;13.070;2023-08-06T07:09:34;6.38;;;5.70;;
12814;SDS011;6472;52.328;13.070;2023-08-06T07:12:03;6.15;;;5.55;;
12814;SDS011;6472;52.328;13.070;2023-08-06T07:14:31;6.63;;;5.90;;
12814;SDS011;6472;52.328;13.070;2023-08-06T07:16:59;6.90;;;5.75;;
12814;SDS011;6472;52.328;13.070;2023-08-06T07:19:28;7.32;;;6.63;;
12814;SDS011;6472;52.328;13.070;2023-08-06T07:21:57;6.97;;;5.32;;
12814;SDS011;6472;52.328;13.070;2023-08-06T07:24:25;6.13;;;5.53;;
12814;SDS011;6472;52.328;13.070;2023-08-06T07:26:53;7.05;;;6.32;;
12814;SDS011;6472;52.328;13.070;2023-08-06T07:29:21;5.95;;;5.43;;
12814;SDS011;6472;52.328;13.070;2023-08-06T07:31:50;6.60;;;6.00;;
12814;SDS011;6472;52.328;13.070;2023-08-06T07:34:18;6.38;;;5.78;;
12814;SDS011;6472;52.328;13.070;2023-08-06T07:36:47;6.45;;;5.70;;
12814;SDS011;6472;52.328;13.070;2023-08-06T07:39:16;6.57;;;5.93;;
12814;SDS011;6472;52.328;13.070;2023-08-06T07:41:44;6.82;;;5.60;;
12814;SDS011;6472;52.328;13.070;2023-08-06T07:44:12;6.43;;;5.35;;
12814;SDS011;6472;52.328;13.070;2023-08-06T07:46:41;5.57;;;5.07;;
12814;SDS011;6472;52.328;13.070;2023-08-06T07:49:09;5.45;;;4.85;;
12814;SDS011;6472;52.328;13.070;2023-08-06T07:51:38;6.25;;;5.65;;
12814;SDS011;6472;52.328;13.070;2023-08-06T07:54:06;6.90;;;6.13;;
12814;SDS011;6472;52.328;13.070;2023-08-06T07:56:35;7.07;;;6.05;;
12814;SDS011;6472;52.328;13.070;2023-08-06T07:59:04;6.80;;;5.68;;
12814;SDS011;6472;52.328;13.070;2023-08-06T08:01:32;6.55;;;5.80;;
12814;SDS011;6472;52.328;13.070;2023-08-06T08:04:00;5.30;;;4.90;;
12814;SDS011;6472;52.328;13.070;2023-08-06T08:06:28;5.93;;;5.32;;
12814;SDS011;6472;52.328;13.070;2023-08-06T08:08:56;5.82;;;5.30;;
12814;SDS011;6472;52.328;13.070;2023-08-06T08:11:25;6.03;;;4.93;;
12814;SDS011;6472;52.328;13.070;2023-08-06T08:13:54;5.10;;;4.55;;
12814;SDS011;6472;52.328;13.070;2023-08-06T08:16:22;5.40;;;4.90;;
12814;SDS011;6472;52.328;13.070;2023-08-06T08:18:50;6.25;;;5.53;;
12814;SDS011;6472;52.328;13.070;2023-08-06T08:21:18;5.13;;;4.63;;
12814;SDS011;6472;52.328;13.070;2023-08-06T08:23:46;5.38;;;4.88;;
12814;SDS011;6472;52.328;13.070;2023-08-06T08:26:14;5.40;;;4.90;;
12814;SDS011;6472;52.328;13.070;2023-08-06T08:28:42;5.65;;;5.05;;
12814;SDS011;6472;52.328;13.070;2023-08-06T08:31:11;6.32;;;5.63;;
12814;SDS011;6472;52.328;13.070;2023-08-06T08:33:39;5.82;;;5.20;;
12814;SDS011;6472;52.328;13.070;2023-08-06T08:36:08;6.22;;;5.72;;
12814;SDS011;6472;52.328;13.070;2023-08-06T08:38:36;5.80;;;5.30;;
12814;SDS011;6472;52.328;13.070;2023-08-06T08:41:04;5.05;;;4.65;;
12814;SDS011;6472;52.328;13.070;2023-08-06T08:43:33;5.15;;;4.70;;
12814;SDS011;6472;52.328;13.070;2023-08-06T08:46:01;6.07;;;4.93;;
12814;SDS011;6472;52.328;13.070;2023-08-06T08:48:33;7.50;;;5.03;;
12814;SDS011;6472;52.328;13.070;2023-08-06T08:51:01;4.80;;;4.00;;
12814;SDS011;6472;52.328;13.070;2023-08-06T08:53:30;5.35;;;4.85;;
12814;SDS011;6472;52.328;13.070;2023-08-06T08:55:59;5.28;;;4.68;;
12814;SDS011;6472;52.328;13.070;2023-08-06T08:58:27;4.50;;;4.10;;
12814;SDS011;6472;52.328;13.070;2023-08-06T09:00:58;5.32;;;4.70;;
12814;SDS011;6472;52.328;13.070;2023-08-06T09:03:26;6.20;;;3.67;;
12814;SDS011;6472;52.328;13.070;2023-08-06T09:05:56;5.28;;;4.80;;
12814;SDS011;6472;52.328;13.070;2023-08-06T09:08:27;5.18;;;4.53;;
12814;SDS011;6472;52.328;13.070;2023-08-06T09:10:58;6.57;;;4.68;;
12814;SDS011;6472;52.328;13.070;2023-08-06T09:13:29;4.63;;;4.22;;
12814;SDS011;6472;52.328;13.070;2023-08-06T09:15:57;4.63;;;4.20;;
12814;SDS011;6472;52.328;13.070;2023-08-06T09:18:26;5.35;;;4.85;;
12814;SDS011;6472;52.328;13.070;2023-08-06T09:20:56;5.70;;;4.68;;
12814;SDS011;6472;52.328;13.070;2023-08-06T09:23:29;5.40;;;4.90;;
12814;SDS011;6472;52.328;13.070;2023-08-06T09:25:59;5.22;;;4.82;;
12814;SDS011;6472;52.328;13.070;2023-08-06T09:28:36;5.80;;;5.28;;
12814;SDS011;6472;52.328;13.070;2023-08-06T09:31:10;5.40;;;5.00;;
12814;SDS011;6472;52.328;13.070;2023-08-06T09:33:41;6.28;;;5.68;;
12814;SDS011;6472;52.328;13.070;2023-08-06T09:36:12;5.15;;;4.68;;
12814;SDS011;6472;52.328;13.070;2023-08-06T09:38:40;5.90;;;5.40;;
12814;SDS011;6472;52.328;13.070;2023-08-06T09:41:08;5.53;;;5.03;;
12814;SDS011;6472;52.328;13.070;2023-08-06T09:43:40;6.15;;;5.55;;
12814;SDS011;6472;52.328;13.070;2023-08-06T09:46:12;5.75;;;5.25;;
12814;SDS011;6472;52.328;13.070;2023-08-06T09:48:44;6.15;;;5.55;;
12814;SDS011;6472;52.328;13.070;2023-08-06T09:51:14;9.05;;;5.53;;
12814;SDS011;6472;52.328;13.070;2023-08-06T09:53:44;6.35;;;5.05;;
12814;SDS011;6472;52.328;13.070;2023-08-06T09:56:13;5.65;;;5.05;;
12814;SDS011;6472;52.328;13.070;2023-08-06T09:58:42;5.75;;;5.15;;
12814;SDS011;6472;52.328;13.070;2023-08-06T10:01:14;6.05;;;5.05;;
12814;SDS011;6472;52.328;13.070;2023-08-06T10:03:44;5.47;;;4.95;;
12814;SDS011;6472;52.328;13.070;2023-08-06T10:06:14;6.30;;;5.70;;
12814;SDS011;6472;52.328;13.070;2023-08-06T10:08:42;6.38;;;5.80;;
12814;SDS011;6472;52.328;13.070;2023-08-06T10:11:11;6.55;;;5.95;;
12814;SDS011;6472;52.328;13.070;2023-08-06T10:13:40;5.80;;;5.30;;
12814;SDS011;6472;52.328;13.070;2023-08-06T10:16:08;6.18;;;5.57;;
12814;SDS011;6472;52.328;13.070;2023-08-06T10:18:37;6.03;;;5.53;;
12814;SDS011;6472;52.328;13.070;2023-08-06T10:21:07;6.50;;;5.43;;
12814;SDS011;6472;52.328;13.070;2023-08-06T10:23:39;7.13;;;5.65;;
12814;SDS011;6472;52.328;13.070;2023-08-06T10:26:08;6.53;;;5.40;;
12814;SDS011;6472;52.328;13.070;2023-08-06T10:28:36;5.57;;;4.97;;
12814;SDS011;6472;52.328;13.070;2023-08-06T10:31:05;5.50;;;5.00;;
12814;SDS011;6472;52.328;13.070;2023-08-06T10:33:40;6.18;;;5.50;;
12814;SDS011;6472;52.328;13.070;2023-08-06T10:36:10;5.43;;;5.03;;
12814;SDS011;6472;52.328;13.070;2023-08-06T10:38:46;5.57;;;5.05;;
12814;SDS011;6472;52.328;13.070;2023-08-06T10:41:15;7.35;;;5.82;;
12814;SDS011;6472;52.328;13.070;2023-08-06T10:43:49;8.68;;;5.97;;
12814;SDS011;6472;52.328;13.070;2023-08-06T10:46:21;7.00;;;6.18;;
12814;SDS011;6472;52.328;13.070;2023-08-06T10:48:51;8.55;;;6.07;;
12814;SDS011;6472;52.328;13.070;2023-08-06T10:51:19;7.18;;;6.47;;
12814;SDS011;6472;52.328;13.070;2023-08-06T10:53:48;5.40;;;5.00;;
12814;SDS011;6472;52.328;13.070;2023-08-06T10:56:18;5.82;;;5.40;;
12814;SDS011;6472;52.328;13.070;2023-08-06T10:58:49;5.68;;;5.18;;
12814;SDS011;6472;52.328;13.070;2023-08-06T11:01:18;6.55;;;5.55;;
12814;SDS011;6472;52.328;13.070;2023-08-06T11:03:47;5.82;;;5.32;;
12814;SDS011;6472;52.328;13.070;2023-08-06T11:06:17;6.13;;;5.50;;
12814;SDS011;6472;52.328;13.070;2023-08-06T11:08:51;5.95;;;5.45;;
12814;SDS011;6472;52.328;13.070;2023-08-06T11:11:20;5.10;;;4.70;;
12814;SDS011;6472;52.328;13.070;2023-08-06T11:13:50;5.50;;;4.75;;
12814;SDS011;6472;52.328;13.070;2023-08-06T11:16:19;5.68;;;5.18;;
12814;SDS011;6472;52.328;13.070;2023-08-06T11:18:49;6.10;;;5.60;;
12814;SDS011;6472;52.328;13.070;2023-08-06T11:21:19;5.45;;;4.95;;
12814;SDS011;6472;52.328;13.070;2023-08-06T11:23:47;5.43;;;4.85;;
12814;SDS011;6472;52.328;13.070;2023-08-06T11:26:19;5.43;;;4.93;;
12814;SDS011;6472;52.328;13.070;2023-08-06T11:28:49;4.40;;;4.10;;
12814;SDS011;6472;52.328;13.070;2023-08-06T11:31:20;5.82;;;5.15;;
12814;SDS011;6472;52.328;13.070;2023-08-06T11:33:49;5.90;;;5.30;;
12814;SDS011;6472;52.328;13.070;2023-08-06T11:36:27;6.22;;;5.22;;
12814;SDS011;6472;52.328;13.070;2023-08-06T11:38:56;5.88;;;5.25;;
12814;SDS011;6472;52.328;13.070;2023-08-06T11:41:27;5.90;;;5.40;;
12814;SDS011;6472;52.328;13.070;2023-08-06T11:43:55;5.32;;;4.82;;
12814;SDS011;6472;52.328;13.070;2023-08-06T11:46:23;6.60;;;5.88;;
12814;SDS011;6472;52.328;13.070;2023-08-06T11:48:52;5.95;;;5.38;;
12814;SDS011;6472;52.328;13.070;2023-08-06T11:51:22;5.97;;;5.38;;
12814;SDS011;6472;52.328;13.070;2023-08-06T11:53:54;6.97;;;5.70;;
12814;SDS011;6472;52.328;13.070;2023-08-06T11:56:23;5.82;;;5.25;;
12814;SDS011;6472;52.328;13.070;2023-08-06T11:58:54;5.80;;;5.30;;
12814;SDS011;6472;52.328;13.070;2023-08-06T12:01:22;6.55;;;5.07;;
12814;SDS011;6472;52.328;13.070;2023-08-06T12:03:51;5.25;;;4.75;;
12814;SDS011;6472;52.328;13.070;2023-08-06T12:06:19;5.35;;;4.95;;
12814;SDS011;6472;52.328;13.070;2023-08-06T12:08:47;6.75;;;4.82;;
12814;SDS011;6472;52.328;13.070;2023-08-06T12:11:17;4.85;;;4.45;;
12814;SDS011;6472;52.328;13.070;2023-08-06T12:13:51;5.90;;;5.03;;
12814;SDS011;6472;52.328;13.070;2023-08-06T12:16:20;4.57;;;4.18;;
12814;SDS011;6472;52.328;13.070;2023-08-06T12:18:50;4.43;;;4.10;;
12814;SDS011;6472;52.328;13.070;2023-08-06T12:21:18;5.10;;;4.60;;
12814;SDS011;6472;52.328;13.070;2023-08-06T12:23:46;6.72;;;4.70;;
12814;SDS011;6472;52.328;13.070;2023-08-06T12:26:14;5.53;;;5.03;;
12814;SDS011;6472;52.328;13.070;2023-08-06T12:28:42;5.20;;;4.70;;
12814;SDS011;6472;52.328;13.070;2023-08-06T12:31:11;5.35;;;4.85;;
12814;SDS011;6472;52.328;13.070;2023-08-06T12:33:40;5.00;;;4.45;;
12814;SDS011;6472;52.328;13.070;2023-08-06T12:36:07;5.93;;;4.70;;
12814;SDS011;6472;52.328;13.070;2023-08-06T12:38:36;4.40;;;4.07;;
12814;SDS011;6472;52.328;13.070;2023-08-06T12:41:03;5.32;;;4.93;;
12814;SDS011;6472;52.328;13.070;2023-08-06T12:43:32;5.88;;;4.22;;
12814;SDS011;6472;52.328;13.070;2023-08-06T12:46:00;4.90;;;4.50;;
12814;SDS011;6472;52.328;13.070;2023-08-06T12:48:29;4.95;;;4.55;;
12814;SDS011;6472;52.328;13.070;2023-08-06T12:50:57;5.30;;;4.72;;
12814;SDS011;6472;52.328;13.070;2023-08-06T12:53:26;5.53;;;4.53;;
12814;SDS011;6472;52.328;13.070;2023-08-06T12:55:55;4.82;;;4.38;;
12814;SDS011;6472;52.328;13.070;2023-08-06T12:58:23;6.53;;;4.95;;
12814;SDS011;6472;52.328;13.070;2023-08-06T13:00:51;5.97;;;5.38;;
12814;SDS011;6472;52.328;13.070;2023-08-06T13:03:20;4.53;;;4.13;;
12814;SDS011;6472;52.328;13.070;2023-08-06T13:05:50;4.97;;;4.57;;
12814;SDS011;6472;52.328;13.070;2023-08-06T13:08:18;5.45;;;4.72;;
12814;SDS011;6472;52.328;13.070;2023-08-06T13:10:46;5.45;;;4.95;;
12814;SDS011;6472;52.328;13.070;2023-08-06T13:13:14;5.10;;;4.60;;
12814;SDS011;6472;52.328;13.070;2023-08-06T13:15:42;5.40;;;4.90;;
12814;SDS011;6472;52.328;13.070;2023-08-06T13:18:10;5.10;;;4.55;;
12814;SDS011;6472;52.328;13.070;2023-08-06T13:20:39;4.57;;;4.22;;
12814;SDS011;6472;52.328;13.070;2023-08-06T13:23:09;5.55;;;4.95;;
12814;SDS011;6472;52.328;13.070;2023-08-06T13:25:37;4.82;;;4.22;;
12814;SDS011;6472;52.328;13.070;2023-08-06T13:28:05;5.55;;;5.05;;
12814;SDS011;6472;52.328;13.070;2023-08-06T13:30:33;5.82;;;5.32;;
12814;SDS011;6472;52.328;13.070;2023-08-06T13:33:08;6.20;;;5.60;;
12814;SDS011;6472;52.328;13.070;2023-08-06T13:35:36;5.63;;;5.13;;
12814;SDS011;6472;52.328;13.070;2023-08-06T13:38:04;6.07;;;5.57;;
12814;SDS011;6472;52.328;13.070;2023-08-06T13:40:34;6.45;;;5.85;;
12814;SDS011;6472;52.328;13.070;2023-08-06T13:43:02;6.47;;;5.55;;
12814;SDS011;6472;52.328;13.070;2023-08-06T13:45:30;7.35;;;6.22;;
12814;SDS011;6472;52.328;13.070;2023-08-06T13:48:00;6.80;;;5.97;;
12814;SDS011;6472;52.328;13.070;2023-08-06T13:50:30;5.68;;;5.18;;
12814;SDS011;6472;52.328;13.070;2023-08-06T13:52:58;6.03;;;5.28;;
12814;SDS011;6472;52.328;13.070;2023-08-06T13:55:26;6.57;;;5.97;;
12814;SDS011;6472;52.328;13.070;2023-08-06T13:57:55;6.03;;;5.53;;
12814;SDS011;6472;52.328;13.070;2023-08-06T14:00:23;6.93;;;6.22;;
12814;SDS011;6472;52.328;13.070;2023-08-06T14:02:51;6.53;;;5.93;;
12814;SDS011;6472;52.328;13.070;2023-08-06T14:05:20;6.40;;;5.90;;
12814;SDS011;6472;52.328;13.070;2023-08-06T14:07:48;6.20;;;5.70;;
12814;SDS011;6472;52.328;13.070;2023-08-06T14:10:16;5.50;;;5.03;;
12814;SDS011;6472;52.328;13.070;2023-08-06T14:12:44;5.75;;;5.20;;
12814;SDS011;6472;52.328;13.070;2023-08-06T14:15:32;5.32;;;4.82;;
12814;SDS011;6472;52.328;13.070;2023-08-06T14:18:00;4.50;;;4.10;;
12814;SDS011;6472;52.328;13.070;2023-08-06T14:20:29;3.45;;;3.25;;
12814;SDS011;6472;52.328;13.070;2023-08-06T14:22:57;3.42;;;3.20;;
12814;SDS011;6472;52.328;13.070;2023-08-06T14:25:25;3.05;;;2.75;;
12814;SDS011;6472;52.328;13.070;2023-08-06T14:27:53;3.08;;;2.33;;
12814;SDS011;6472;52.328;13.070;2023-08-06T14:30:21;3.00;;;2.70;;
12814;SDS011;6472;52.328;13.070;2023-08-06T14:32:51;3.65;;;2.75;;
12814;SDS011;6472;52.328;13.070;2023-08-06T14:35:19;1.90;;;1.80;;
12814;SDS011;6472;52.328;13.070;2023-08-06T14:37:47;2.25;;;2.05;;
12814;SDS011;6472;52.328;13.070;2023-08-06T14:40:15;2.60;;;2.00;;
12814;SDS011;6472;52.328;13.070;2023-08-06T14:42:43;2.17;;;2.00;;
12814;SDS011;6472;52.328;13.070;2023-08-06T14:45:11;2.08;;;1.98;;
12814;SDS011;6472;52.328;13.070;2023-08-06T14:47:39;2.60;;;2.30;;
12814;SDS011;6472;52.328;13.070;2023-08-06T14:50:09;2.30;;;2.10;;
12814;SDS011;6472;52.328;13.070;2023-08-06T14:52:37;2.22;;;2.13;;
12814;SDS011;6472;52.328;13.070;2023-08-06T14:55:05;3.88;;;2.78;;